Time;durP1;ratioP1;P1;durP2;ratioP2;P2;SDS_P1;SDS_P2;PMS_P1;PMS_P2;Temp;Humidity;BMP_temperature;BMP_pressure;BME280_temperature;BME280_humidity;BME280_pressure;Samples;Min_cycle;Max_cycle;Signal;HPM_P1;HPM_P2
2021/06/26 00:01:56;;;;;;;8.93;8.00;;;15.10;99.90;;;;;;5052702;28;20561;-69
2021/06/26 00:04:23;;;;;;;7.30;6.50;;;15.10;99.90;;;;;;5052835;28;20486;-67
2021/06/26 00:06:49;;;;;;;8.30;7.60;;;15.10;99.90;;;;;;5051914;28;20463;-67
2021/06/26 00:09:16;;;;;;;9.60;6.50;;;15.10;99.90;;;;;;5209234;22;20866;-75
2021/06/26 00:11:43;;;;;;;7.90;7.10;;;15.10;99.90;;;;;;5050951;28;20828;-75
2021/06/26 00:14:10;;;;;;;8.00;7.17;;;15.10;99.90;;;;;;5051727;28;20458;-73
2021/06/26 00:16:38;;;;;;;8.00;7.30;;;15.10;99.90;;;;;;5052409;28;20468;-73
2021/06/26 00:19:05;;;;;;;7.83;7.13;;;15.10;99.90;;;;;;5051641;28;20459;-75
2021/06/26 00:21:32;;;;;;;7.70;6.97;;;15.00;99.90;;;;;;5051778;28;20475;-75
2021/06/26 00:23:58;;;;;;;8.43;7.23;;;15.00;99.90;;;;;;5051575;28;20479;-75
2021/06/26 00:26:26;;;;;;;7.90;7.17;;;15.00;99.90;;;;;;5051843;28;20899;-75
2021/06/26 00:28:54;;;;;;;9.70;7.80;;;15.00;99.90;;;;;;5051810;28;20459;-75
2021/06/26 00:31:21;;;;;;;7.77;6.97;;;15.00;99.90;;;;;;5051358;28;20494;-76
2021/06/26 00:33:49;;;;;;;8.37;7.57;;;15.00;99.90;;;;;;5051899;28;20463;-75
2021/06/26 00:36:16;;;;;;;7.90;7.10;;;15.00;99.90;;;;;;5051519;28;20648;-75
2021/06/26 00:38:42;;;;;;;7.87;7.17;;;15.00;99.90;;;;;;5051701;28;20466;-76
2021/06/26 00:41:09;;;;;;;8.50;6.53;;;15.10;99.90;;;;;;5050919;28;20490;-76
2021/06/26 00:43:36;;;;;;;8.03;5.97;;;15.10;99.90;;;;;;5051475;28;20561;-75
2021/06/26 00:46:03;;;;;;;8.00;6.63;;;15.10;99.90;;;;;;5051592;28;20459;-76
2021/06/26 00:48:29;;;;;;;7.30;6.60;;;15.00;99.90;;;;;;5050588;28;20470;-76
2021/06/26 00:50:57;;;;;;;7.50;6.90;;;15.00;99.90;;;;;;5050835;28;20487;-76
2021/06/26 00:53:27;;;;;;;10.50;6.97;;;15.00;99.90;;;;;;5051234;28;20471;-75
2021/06/26 00:55:54;;;;;;;7.60;6.90;;;15.00;99.90;;;;;;5051519;28;20463;-76
2021/06/26 00:58:21;;;;;;;10.27;7.87;;;15.00;99.90;;;;;;5051014;28;20832;-75
2021/06/26 01:00:48;;;;;;;8.10;7.30;;;15.00;99.90;;;;;;5050838;28;20834;-75
2021/06/26 01:03:15;;;;;;;8.50;6.70;;;15.00;99.90;;;;;;5051158;28;21339;-76
2021/06/26 01:05:42;;;;;;;7.73;6.90;;;15.00;99.90;;;;;;5051344;28;20901;-75
2021/06/26 01:08:10;;;;;;;6.77;6.13;;;15.00;99.90;;;;;;5051084;28;20845;-76
2021/06/26 01:10:37;;;;;;;7.20;6.60;;;15.00;99.90;;;;;;5050373;28;20491;-76
2021/06/26 01:13:05;;;;;;;7.87;7.10;;;15.00;99.90;;;;;;5050933;28;20463;-75
2021/06/26 01:15:32;;;;;;;8.60;7.37;;;15.00;99.90;;;;;;5050980;28;20466;-76
2021/06/26 01:17:58;;;;;;;7.50;6.80;;;15.00;99.90;;;;;;5051111;28;20474;-75
2021/06/26 01:20:26;;;;;;;8.60;7.47;;;15.00;99.90;;;;;;5050329;28;20525;-75
2021/06/26 01:22:57;;;;;;;8.07;6.77;;;15.00;99.90;;;;;;5051068;28;20455;-75
2021/06/26 01:25:24;;;;;;;7.83;7.07;;;15.00;99.90;;;;;;5050846;28;20495;-76
2021/06/26 01:27:51;;;;;;;8.63;7.00;;;15.00;99.90;;;;;;5050752;28;20555;-76
2021/06/26 01:30:24;;;;;;;7.07;6.47;;;15.00;99.90;;;;;;5049992;28;20459;-76
2021/06/26 01:32:51;;;;;;;6.63;6.03;;;15.00;99.90;;;;;;5050765;28;20471;-75
2021/06/26 01:35:18;;;;;;;7.93;7.20;;;15.00;99.90;;;;;;5050499;28;20463;-76
2021/06/26 01:37:45;;;;;;;7.60;7.00;;;14.90;99.90;;;;;;5050676;28;20832;-75
2021/06/26 01:40:17;;;;;;;10.03;7.50;;;14.90;99.90;;;;;;5049979;28;20737;-76
2021/06/26 01:42:44;;;;;;;7.27;6.60;;;15.00;99.90;;;;;;5050576;28;20459;-75
2021/06/26 01:45:12;;;;;;;8.03;7.33;;;15.00;99.90;;;;;;5050186;28;21013;-75
2021/06/26 01:47:44;;;;;;;8.80;7.60;;;15.00;99.90;;;;;;5050494;28;20463;-75
2021/06/26 01:50:12;;;;;;;8.60;7.80;;;15.00;99.90;;;;;;5049607;28;20812;-75
2021/06/26 01:52:38;;;;;;;7.83;7.10;;;15.00;99.90;;;;;;5050455;28;20459;-76
2021/06/26 01:55:07;;;;;;;8.17;7.17;;;15.00;99.90;;;;;;5049969;28;20455;-76
2021/06/26 01:57:35;;;;;;;7.80;7.10;;;15.00;99.90;;;;;;5050192;28;20459;-75
2021/06/26 02:00:01;;;;;;;8.07;7.27;;;14.90;99.90;;;;;;5049570;28;20471;-75
2021/06/26 02:02:28;;;;;;;7.67;6.93;;;15.00;99.90;;;;;;5049725;28;20487;-75
2021/06/26 02:04:55;;;;;;;8.07;7.37;;;15.00;99.90;;;;;;5050446;28;20483;-75
2021/06/26 02:07:21;;;;;;;8.27;7.47;;;15.00;99.90;;;;;;5049922;28;20463;-75
2021/06/26 02:09:48;;;;;;;7.83;7.10;;;15.00;99.90;;;;;;5049522;28;20467;-75
2021/06/26 02:12:15;;;;;;;8.90;8.00;;;15.00;99.90;;;;;;5049581;28;20479;-75
2021/06/26 02:14:43;;;;;;;9.90;8.20;;;15.00;99.90;;;;;;5050026;28;20456;-75
2021/06/26 02:17:09;;;;;;;8.63;7.27;;;14.90;99.90;;;;;;5050256;28;20466;-74
2021/06/26 02:19:36;;;;;;;8.27;7.50;;;14.90;99.90;;;;;;5049448;28;20896;-75
2021/06/26 02:22:03;;;;;;;9.33;8.30;;;14.90;99.90;;;;;;5050165;28;20486;-75
2021/06/26 02:24:30;;;;;;;7.80;6.80;;;15.00;99.90;;;;;;5049928;28;20487;-75
2021/06/26 02:26:57;;;;;;;8.97;8.10;;;15.00;99.90;;;;;;5050333;28;20470;-75
2021/06/26 02:29:23;;;;;;;7.80;7.10;;;14.90;99.90;;;;;;5049328;28;20463;-75
2021/06/26 02:31:51;;;;;;;9.30;7.40;;;15.00;99.90;;;;;;5049791;28;20483;-75
2021/06/26 02:34:19;;;;;;;10.70;7.50;;;15.00;99.90;;;;;;5050198;28;20521;-75
2021/06/26 02:36:46;;;;;;;8.50;7.70;;;15.00;99.90;;;;;;5049975;28;20812;-75
2021/06/26 02:39:13;;;;;;;8.83;7.50;;;15.00;99.90;;;;;;5048887;28;20922;-75
2021/06/26 02:41:40;;;;;;;9.17;7.97;;;15.00;99.90;;;;;;5048676;28;20475;-75
2021/06/26 02:44:07;;;;;;;8.57;7.50;;;15.00;99.90;;;;;;5048740;28;20460;-75
2021/06/26 02:46:34;;;;;;;8.73;7.83;;;15.00;99.90;;;;;;5048685;28;20487;-75
2021/06/26 02:49:02;;;;;;;8.63;7.83;;;15.00;99.90;;;;;;5048752;28;20865;-75
2021/06/26 02:51:28;;;;;;;9.50;7.70;;;15.00;99.90;;;;;;5048219;28;20494;-75
2021/06/26 02:53:55;;;;;;;9.53;8.40;;;15.00;99.90;;;;;;5048687;28;20871;-75
2021/06/26 02:56:22;;;;;;;9.37;8.47;;;15.00;99.90;;;;;;5048506;28;20907;-75
2021/06/26 02:58:49;;;;;;;8.73;7.57;;;15.00;99.90;;;;;;5048528;28;20459;-75
2021/06/26 03:01:16;;;;;;;8.33;7.37;;;15.00;99.90;;;;;;5047873;28;20479;-75
2021/06/26 03:03:43;;;;;;;11.27;7.90;;;15.00;99.90;;;;;;5048766;28;20470;-75
2021/06/26 03:06:11;;;;;;;9.50;8.60;;;14.90;99.90;;;;;;5048144;28;20487;-75
2021/06/26 03:08:38;;;;;;;8.73;7.80;;;14.90;99.90;;;;;;5048395;28;20474;-75
2021/06/26 03:11:05;;;;;;;8.67;7.87;;;14.90;99.90;;;;;;5047206;28;20483;-75
2021/06/26 03:13:31;;;;;;;8.97;8.00;;;14.80;99.90;;;;;;5048500;28;20464;-75
2021/06/26 03:15:58;;;;;;;9.60;8.70;;;14.80;99.90;;;;;;5048450;28;20463;-75
2021/06/26 03:18:25;;;;;;;9.33;8.27;;;14.80;99.90;;;;;;5048216;28;20468;-76
2021/06/26 03:20:51;;;;;;;10.10;8.03;;;14.80;99.90;;;;;;5047943;28;20487;-75
2021/06/26 03:23:19;;;;;;;9.33;8.00;;;14.70;99.90;;;;;;5048040;28;20460;-75
2021/06/26 03:25:46;;;;;;;10.17;8.53;;;14.70;99.90;;;;;;5048595;28;20843;-75
2021/06/26 03:28:13;;;;;;;11.80;9.13;;;14.60;99.90;;;;;;5048101;28;20463;-76
2021/06/26 03:30:39;;;;;;;10.10;8.67;;;14.60;99.90;;;;;;5047953;28;20479;-75
2021/06/26 03:33:06;;;;;;;9.20;8.30;;;14.60;99.90;;;;;;5048321;28;20867;-75
2021/06/26 03:35:33;;;;;;;8.23;7.43;;;14.50;99.90;;;;;;5048161;28;20470;-75
2021/06/26 03:38:00;;;;;;;14.07;8.23;;;14.50;99.90;;;;;;5048234;28;20455;-75
2021/06/26 03:40:28;;;;;;;7.97;7.13;;;14.40;99.90;;;;;;5047264;28;20463;-76
2021/06/26 03:42:54;;;;;;;8.27;7.40;;;14.40;99.90;;;;;;5048188;28;20478;-75
2021/06/26 03:45:21;;;;;;;9.10;8.10;;;14.40;99.90;;;;;;5047829;28;20847;-76
2021/06/26 03:47:48;;;;;;;9.97;8.80;;;14.30;99.90;;;;;;5048513;28;20463;-75
2021/06/26 03:50:14;;;;;;;9.50;8.57;;;14.20;99.90;;;;;;5047411;28;21240;-76
2021/06/26 03:52:41;;;;;;;9.30;8.30;;;14.30;99.90;;;;;;5048258;28;20474;-75
2021/06/26 03:55:09;;;;;;;9.93;8.93;;;14.30;99.90;;;;;;5048301;28;20464;-75
2021/06/26 03:57:37;;;;;;;10.53;8.97;;;14.20;99.90;;;;;;5047944;28;20977;-76
2021/06/26 04:00:06;;;;;;;12.10;9.13;;;14.20;99.90;;;;;;5047669;28;20463;-75
2021/06/26 04:02:33;;;;;;;10.00;8.90;;;14.20;99.90;;;;;;5048035;28;20479;-76
2021/06/26 04:04:59;;;;;;;10.87;9.73;;;14.20;99.90;;;;;;5048392;28;20486;-74
2021/06/26 04:07:26;;;;;;;10.67;9.57;;;14.20;99.90;;;;;;5047786;28;20474;-76
2021/06/26 04:09:53;;;;;;;9.80;8.80;;;14.20;99.90;;;;;;5047459;28;20470;-75
2021/06/26 04:12:20;;;;;;;11.33;10.00;;;14.20;99.90;;;;;;5047488;28;20479;-75
2021/06/26 04:14:48;;;;;;;13.70;11.20;;;14.30;99.90;;;;;;5048030;28;20475;-76
2021/06/26 04:17:15;;;;;;;13.30;11.00;;;14.30;99.90;;;;;;5047893;28;20459;-75
2021/06/26 04:19:42;;;;;;;11.97;10.30;;;14.40;99.90;;;;;;5047382;28;20464;-76
2021/06/26 04:22:08;;;;;;;11.17;9.90;;;14.40;99.90;;;;;;5047892;28;20488;-76
2021/06/26 04:24:35;;;;;;;14.03;9.70;;;14.40;99.90;;;;;;5051443;28;20533;-75
2021/06/26 04:27:02;;;;;;;16.13;11.00;;;14.50;99.90;;;;;;5051548;28;20494;-75
2021/06/26 04:29:29;;;;;;;12.13;10.13;;;14.50;99.90;;;;;;5050547;28;20554;-76
2021/06/26 04:31:57;;;;;;;13.60;10.03;;;14.50;99.90;;;;;;5052073;28;20493;-76
2021/06/26 04:34:23;;;;;;;11.57;9.20;;;14.60;99.90;;;;;;5051111;28;20463;-76
2021/06/26 04:36:51;;;;;;;10.40;9.40;;;14.60;99.90;;;;;;5051111;28;20463;-76
2021/06/26 04:39:18;;;;;;;11.57;10.37;;;14.70;99.90;;;;;;5051002;28;20471;-76
2021/06/26 04:41:45;;;;;;;13.13;11.20;;;14.80;99.90;;;;;;5052000;28;20491;-76
2021/06/26 04:44:12;;;;;;;12.20;11.00;;;15.00;99.90;;;;;;5051756;28;20947;-76
2021/06/26 04:46:38;;;;;;;11.60;9.80;;;15.00;99.90;;;;;;5052074;28;20483;-75
2021/06/26 04:49:06;;;;;;;12.70;10.70;;;15.10;99.90;;;;;;5051778;28;20874;-76
2021/06/26 04:51:35;;;;;;;12.80;11.40;;;15.20;99.90;;;;;;5051560;28;20486;-75
2021/06/26 04:54:03;;;;;;;15.70;10.50;;;15.20;99.90;;;;;;5051426;28;20463;-76
2021/06/26 04:56:29;;;;;;;13.87;11.73;;;15.30;99.90;;;;;;5051222;28;20467;-75
2021/06/26 04:58:56;;;;;;;19.63;12.20;;;15.40;99.90;;;;;;5051343;28;20960;-75
2021/06/26 05:01:23;;;;;;;13.90;11.90;;;15.40;99.90;;;;;;5050386;28;20865;-76
2021/06/26 05:03:49;;;;;;;15.00;12.70;;;15.40;99.90;;;;;;5051402;28;20463;-75
2021/06/26 05:06:18;;;;;;;16.70;13.20;;;15.50;99.90;;;;;;5050924;28;20483;-76
2021/06/26 05:08:44;;;;;;;15.13;12.30;;;15.60;99.90;;;;;;5050756;28;20534;-75
2021/06/26 05:11:11;;;;;;;15.70;11.93;;;15.60;99.90;;;;;;5050098;28;20510;-76
2021/06/26 05:13:38;;;;;;;14.83;12.80;;;15.70;99.90;;;;;;5051648;28;20482;-75
2021/06/26 05:16:05;;;;;;;15.33;12.43;;;15.80;99.90;;;;;;5051416;28;20467;-76
2021/06/26 05:18:32;;;;;;;16.57;13.27;;;15.80;99.90;;;;;;5050806;28;20467;-75
2021/06/26 05:20:59;;;;;;;15.47;12.33;;;15.80;99.90;;;;;;5050398;28;20487;-75
2021/06/26 05:23:28;;;;;;;14.47;12.87;;;15.80;99.90;;;;;;5050666;28;20463;-76
2021/06/26 05:25:54;;;;;;;16.93;13.93;;;15.90;99.90;;;;;;5050906;28;20491;-75
2021/06/26 05:28:21;;;;;;;16.00;12.67;;;15.90;99.90;;;;;;5050403;28;20520;-75
2021/06/26 05:30:48;;;;;;;19.50;14.30;;;16.00;99.90;;;;;;5050009;28;20491;-75
2021/06/26 05:33:15;;;;;;;17.70;13.47;;;16.00;99.90;;;;;;5050126;28;20848;-75
2021/06/26 05:35:43;;;;;;;16.20;13.40;;;16.00;99.90;;;;;;5050740;28;20456;-76
2021/06/26 05:38:10;;;;;;;14.63;13.07;;;16.10;99.90;;;;;;5050526;28;20495;-75
2021/06/26 05:40:38;;;;;;;15.50;13.10;;;16.20;99.90;;;;;;5050079;28;20485;-75
2021/06/26 05:43:05;;;;;;;15.07;12.50;;;16.20;99.90;;;;;;5050511;28;20459;-75
2021/06/26 05:45:32;;;;;;;14.23;12.07;;;16.30;99.90;;;;;;5050484;28;20487;-75
2021/06/26 05:47:58;;;;;;;15.13;12.97;;;16.40;99.90;;;;;;5050280;28;20837;-74
2021/06/26 05:50:25;;;;;;;16.77;13.70;;;16.50;99.90;;;;;;5049596;28;20463;-75
2021/06/26 05:52:55;;;;;;;18.70;14.27;;;16.50;99.90;;;;;;5050664;28;21077;-75
2021/06/26 05:55:22;;;;;;;16.33;13.10;;;16.60;99.90;;;;;;5050022;28;20834;-75
2021/06/26 05:57:50;;;;;;;14.97;12.17;;;16.60;99.90;;;;;;5050005;28;20459;-75
2021/06/26 06:00:19;;;;;;;15.07;13.47;;;16.60;99.90;;;;;;5049260;28;20951;-75
2021/06/26 06:02:46;;;;;;;18.20;14.80;;;16.70;99.90;;;;;;5050085;28;20470;-75
2021/06/26 06:05:13;;;;;;;15.60;13.00;;;16.70;99.90;;;;;;5049865;28;20459;-75
2021/06/26 06:07:40;;;;;;;17.10;13.50;;;16.70;99.90;;;;;;5050139;28;20484;-75
2021/06/26 06:10:10;;;;;;;14.90;12.43;;;16.80;99.90;;;;;;5136133;22;20498;-67
2021/06/26 06:12:38;;;;;;;15.47;13.87;;;16.90;99.90;;;;;;5049567;28;20475;-68
2021/06/26 06:15:09;;;;;;;15.33;13.70;;;17.00;99.90;;;;;;5049931;28;20985;-67
2021/06/26 06:17:36;;;;;;;17.03;13.50;;;17.00;99.90;;;;;;5049991;28;20870;-67
2021/06/26 06:20:05;;;;;;;17.30;14.77;;;17.00;99.90;;;;;;5048771;28;20471;-68
2021/06/26 06:22:32;;;;;;;17.73;15.40;;;17.10;99.90;;;;;;5049458;28;20501;-68
2021/06/26 06:24:59;;;;;;;15.40;13.27;;;17.20;99.90;;;;;;5049213;28;20467;-66
2021/06/26 06:27:26;;;;;;;16.07;14.37;;;17.30;99.90;;;;;;5048886;28;20859;-68
2021/06/26 06:29:52;;;;;;;15.43;13.80;;;17.30;99.90;;;;;;5048960;28;20463;-68
2021/06/26 06:32:20;;;;;;;16.13;14.30;;;17.40;99.90;;;;;;5049152;28;20485;-68
2021/06/26 06:34:47;;;;;;;16.80;13.40;;;17.50;99.90;;;;;;5049456;28;20459;-67
2021/06/26 06:37:14;;;;;;;17.00;14.80;;;17.50;99.90;;;;;;5049812;28;20463;-67
2021/06/26 06:39:41;;;;;;;14.47;12.97;;;17.60;99.90;;;;;;5048522;28;20836;-67
2021/06/26 06:42:08;;;;;;;14.47;12.90;;;17.70;99.90;;;;;;5049153;28;20518;-67
2021/06/26 06:44:35;;;;;;;17.00;15.10;;;17.70;99.90;;;;;;5048579;28;20483;-68
2021/06/26 06:47:02;;;;;;;17.77;13.50;;;17.80;99.90;;;;;;5048768;28;21035;-67
2021/06/26 06:49:30;;;;;;;14.00;12.60;;;17.80;99.90;;;;;;5048225;28;20467;-68
2021/06/26 06:51:57;;;;;;;16.03;14.27;;;17.90;99.90;;;;;;5049296;28;20487;-67
2021/06/26 06:54:24;;;;;;;16.90;14.47;;;17.90;99.90;;;;;;5049390;28;20460;-67
2021/06/26 06:56:51;;;;;;;15.20;13.70;;;18.00;99.90;;;;;;5049309;28;20466;-67
2021/06/26 06:59:17;;;;;;;15.80;13.53;;;18.00;99.90;;;;;;5049038;28;20463;-68
2021/06/26 07:01:44;;;;;;;16.57;14.83;;;18.00;99.90;;;;;;5049022;28;20483;-67
2021/06/26 07:04:11;;;;;;;16.00;13.37;;;18.10;99.90;;;;;;5049263;28;20470;-68
2021/06/26 07:06:39;;;;;;;17.47;14.00;;;18.10;99.90;;;;;;5048852;28;20487;-67
2021/06/26 07:09:06;;;;;;;16.10;14.30;;;18.20;99.90;;;;;;5048545;28;20456;-67
2021/06/26 07:11:33;;;;;;;13.93;12.33;;;18.20;99.90;;;;;;5048419;28;20553;-67
2021/06/26 07:13:59;;;;;;;16.17;14.13;;;18.30;99.90;;;;;;5047828;28;20470;-68
2021/06/26 07:16:26;;;;;;;16.33;13.10;;;18.40;99.90;;;;;;5047379;28;20451;-64
2021/06/26 07:18:53;;;;;;;16.07;12.97;;;18.40;99.90;;;;;;5047086;28;20460;-65
2021/06/26 07:21:20;;;;;;;14.80;13.30;;;18.60;99.90;;;;;;5046541;28;20484;-66
2021/06/26 07:23:48;;;;;;;13.80;12.37;;;18.70;99.90;;;;;;5047654;28;20462;-67
2021/06/26 07:26:14;;;;;;;13.87;12.43;;;18.80;99.90;;;;;;5047242;28;20483;-65
2021/06/26 07:28:41;;;;;;;12.93;11.60;;;18.70;99.90;;;;;;5048869;28;20938;-66
2021/06/26 07:31:08;;;;;;;13.00;11.70;;;18.80;99.90;;;;;;5048310;28;20483;-65
2021/06/26 07:33:34;;;;;;;13.63;12.23;;;18.90;99.90;;;;;;5048742;28;20481;-66
2021/06/26 07:36:01;;;;;;;12.83;11.63;;;19.00;99.90;;;;;;5049047;28;20471;-66
2021/06/26 07:38:28;;;;;;;12.93;11.57;;;19.00;99.90;;;;;;5048519;28;20467;-65
2021/06/26 07:40:56;;;;;;;15.83;11.40;;;19.00;99.90;;;;;;5048301;28;20483;-67
2021/06/26 07:43:23;;;;;;;10.80;9.70;;;19.00;99.90;;;;;;5048197;28;20466;-66
2021/06/26 07:45:49;;;;;;;12.43;10.47;;;19.00;99.90;;;;;;5048594;28;20462;-66
2021/06/26 07:48:16;;;;;;;11.60;10.50;;;19.00;99.90;;;;;;5048113;28;20798;-66
2021/06/26 07:50:43;;;;;;;10.47;9.37;;;19.10;99.90;;;;;;5047994;28;20483;-65
2021/06/26 07:53:10;;;;;;;10.27;9.37;;;19.20;99.90;;;;;;5048515;28;20871;-66
2021/06/26 07:55:36;;;;;;;10.63;9.57;;;19.30;99.90;;;;;;5048573;28;20468;-66
2021/06/26 07:58:04;;;;;;;10.07;8.93;;;19.40;99.90;;;;;;5051656;28;20452;-65
2021/06/26 08:00:31;;;;;;;11.77;10.20;;;19.50;99.90;;;;;;5051470;28;20462;-66
2021/06/26 08:02:58;;;;;;;10.03;9.13;;;19.50;99.90;;;;;;5051891;28;20485;-65
2021/06/26 08:05:24;;;;;;;9.27;8.37;;;19.50;99.90;;;;;;5051932;28;20469;-66
2021/06/26 08:07:51;;;;;;;9.43;8.50;;;19.50;99.90;;;;;;5052370;28;20487;-66
2021/06/26 08:10:18;;;;;;;13.37;9.10;;;19.60;99.90;;;;;;5050876;28;20711;-66
2021/06/26 08:12:45;;;;;;;9.03;8.20;;;19.60;99.90;;;;;;5052239;28;20884;-66
2021/06/26 08:15:14;;;;;;;8.87;8.07;;;19.70;99.90;;;;;;5052382;28;20454;-65
2021/06/26 08:17:41;;;;;;;8.70;7.90;;;19.70;99.90;;;;;;5051010;28;20451;-65
2021/06/26 08:20:08;;;;;;;9.73;8.77;;;19.70;99.90;;;;;;5049270;28;20459;-65
2021/06/26 08:22:35;;;;;;;8.27;7.47;;;19.70;99.90;;;;;;5049793;28;20510;-65
2021/06/26 08:25:02;;;;;;;9.47;8.47;;;19.70;99.90;;;;;;5050985;28;20451;-66
2021/06/26 08:27:28;;;;;;;9.40;8.50;;;19.70;99.90;;;;;;5033598;28;20491;-65
2021/06/26 08:29:55;;;;;;;9.70;8.80;;;19.80;99.90;;;;;;5031140;28;20468;-65
2021/06/26 08:32:23;;;;;;;10.03;9.17;;;19.90;99.90;;;;;;5031097;28;20480;-65
2021/06/26 08:34:50;;;;;;;9.77;8.87;;;20.10;99.90;;;;;;5032303;28;20471;-66
2021/06/26 08:37:17;;;;;;;10.40;9.40;;;20.20;99.90;;;;;;5032289;28;20468;-66
2021/06/26 08:39:44;;;;;;;10.30;9.30;;;20.30;99.90;;;;;;5032042;28;20464;-66
2021/06/26 08:42:12;;;;;;;9.10;8.30;;;20.30;99.90;;;;;;5031958;28;20484;-66
2021/06/26 08:44:40;;;;;;;12.10;10.93;;;20.50;99.90;;;;;;5032033;28;20864;-65
2021/06/26 08:47:07;;;;;;;10.57;9.57;;;20.50;99.90;;;;;;5031964;28;20830;-65
2021/06/26 08:49:35;;;;;;;9.60;8.73;;;20.50;99.90;;;;;;5031317;28;20468;-65
2021/06/26 08:52:02;;;;;;;10.13;9.13;;;20.50;99.90;;;;;;5031793;28;20859;-65
2021/06/26 08:54:29;;;;;;;10.40;9.30;;;20.60;99.90;;;;;;5031827;28;20464;-65
2021/06/26 08:56:56;;;;;;;10.00;9.10;;;20.70;99.90;;;;;;5031989;28;20463;-65
2021/06/26 08:59:23;;;;;;;10.17;9.20;;;20.70;99.90;;;;;;5031121;28;20463;-66
2021/06/26 09:01:50;;;;;;;9.87;8.97;;;20.70;99.90;;;;;;5031434;28;20484;-65
2021/06/26 09:04:19;;;;;;;10.33;9.33;;;20.70;99.90;;;;;;5031626;28;20460;-66
2021/06/26 09:06:51;;;;;;;9.90;9.00;;;20.70;99.90;;;;;;5031681;28;20479;-65
2021/06/26 09:09:30;;;;;;;9.43;8.63;;;20.70;99.90;;;;;;5030259;28;20471;-66
2021/06/26 09:12:04;;;;;;;9.43;8.53;;;20.70;99.90;;;;;;5031510;28;20852;-65
2021/06/26 09:14:31;;;;;;;9.53;8.63;;;20.70;99.90;;;;;;5031448;28;20472;-66
2021/06/26 09:16:57;;;;;;;9.60;8.70;;;20.70;99.90;;;;;;5031137;28;20456;-66
2021/06/26 09:19:24;;;;;;;9.00;8.20;;;20.70;99.90;;;;;;5030520;28;20465;-66
2021/06/26 09:22:02;;;;;;;8.23;7.53;;;20.70;99.90;;;;;;5031024;28;20484;-66
2021/06/26 09:24:41;;;;;;;9.97;9.07;;;20.70;99.90;;;;;;5031109;28;20950;-66
2021/06/26 09:27:08;;;;;;;7.83;7.13;;;20.60;99.90;;;;;;5030703;28;20486;-65
2021/06/26 09:29:35;;;;;;;8.97;8.07;;;20.70;99.90;;;;;;5030409;28;20576;-66
2021/06/26 09:32:03;;;;;;;9.87;8.90;;;20.70;99.90;;;;;;5030561;28;20494;-66
2021/06/26 09:34:39;;;;;;;8.47;7.70;;;20.80;99.90;;;;;;5030590;28;20471;-65
2021/06/26 09:37:09;;;;;;;9.50;8.63;;;20.70;99.90;;;;;;5030600;28;20462;-65
2021/06/26 09:39:36;;;;;;;9.37;8.37;;;20.70;99.90;;;;;;5030291;28;20496;-65
2021/06/26 09:42:15;;;;;;;8.90;8.07;;;20.70;99.90;;;;;;5031060;28;20971;-66
2021/06/26 09:44:51;;;;;;;8.80;8.00;;;20.70;99.90;;;;;;5031041;28;20530;-66
2021/06/26 09:47:33;;;;;;;8.97;8.07;;;20.70;99.90;;;;;;5030676;28;20499;-65
2021/06/26 09:50:14;;;;;;;8.90;8.00;;;20.80;99.90;;;;;;5030310;28;20460;-66
2021/06/26 09:52:44;;;;;;;8.53;7.73;;;20.90;99.90;;;;;;5030538;28;20464;-65
2021/06/26 09:55:15;;;;;;;8.70;7.90;;;20.90;99.90;;;;;;5030282;28;20495;-65
2021/06/26 09:57:42;;;;;;;10.43;8.00;;;20.90;99.90;;;;;;5029847;28;20461;-65
2021/06/26 10:00:10;;;;;;;9.10;8.30;;;21.10;99.90;;;;;;5028853;28;20467;-65
2021/06/26 10:02:37;;;;;;;8.30;7.60;;;21.30;99.90;;;;;;5029750;28;20480;-65
2021/06/26 10:05:06;;;;;;;7.30;6.60;;;21.40;99.90;;;;;;5029821;28;20468;-66
2021/06/26 10:07:34;;;;;;;8.03;7.20;;;21.60;99.90;;;;;;5029787;28;20507;-65
2021/06/26 10:10:02;;;;;;;9.83;8.30;;;21.70;99.90;;;;;;5028996;28;20476;-65
2021/06/26 10:12:30;;;;;;;9.33;8.33;;;21.60;99.90;;;;;;5029418;28;21018;-65
2021/06/26 10:14:57;;;;;;;8.77;7.87;;;21.60;99.90;;;;;;5029845;28;20469;-66
2021/06/26 10:17:25;;;;;;;14.00;11.83;;;21.70;99.90;;;;;;5029192;28;20456;-66
2021/06/26 10:19:52;;;;;;;24.20;17.50;;;21.90;99.90;;;;;;5029591;28;20474;-64
2021/06/26 10:22:19;;;;;;;28.70;22.37;;;22.10;99.90;;;;;;5029517;28;20481;-66
2021/06/26 10:24:47;;;;;;;13.83;11.57;;;22.30;99.90;;;;;;5029695;28;20553;-65
2021/06/26 10:27:19;;;;;;;13.40;10.80;;;22.40;99.90;;;;;;5029363;28;20484;-66
2021/06/26 10:29:45;;;;;;;10.57;9.47;;;22.60;99.90;;;;;;5029294;28;20464;-65
2021/06/26 10:32:14;;;;;;;10.23;9.23;;;22.60;99.90;;;;;;5029321;28;20492;-66
2021/06/26 10:34:43;;;;;;;17.00;14.57;;;22.70;99.90;;;;;;5029742;28;20952;-66
2021/06/26 10:37:15;;;;;;;7.30;6.70;;;22.80;99.90;;;;;;5029593;28;20461;-65
2021/06/26 10:39:42;;;;;;;7.33;6.70;;;22.80;99.90;;;;;;5029001;28;20460;-65
2021/06/26 10:42:12;;;;;;;6.40;5.90;;;22.90;99.90;;;;;;5029549;28;20488;-65
2021/06/26 10:44:51;;;;;;;9.67;8.77;;;22.90;99.90;;;;;;5029521;28;21008;-65
2021/06/26 10:47:19;;;;;;;12.13;10.87;;;23.00;99.90;;;;;;5029675;28;20484;-65
2021/06/26 10:49:47;;;;;;;9.00;8.20;;;23.10;99.90;;;;;;5028962;28;20452;-65
2021/06/26 10:52:16;;;;;;;8.33;7.53;;;23.30;99.90;;;;;;5029231;28;20480;-65
2021/06/26 10:54:54;;;;;;;7.10;6.50;;;23.40;99.90;;;;;;5029318;28;20467;-65
2021/06/26 10:57:21;;;;;;;7.07;6.50;;;23.50;99.90;;;;;;5029238;28;20463;-65
2021/06/26 10:59:57;;;;;;;7.17;6.50;;;23.60;99.90;;;;;;5028664;28;20845;-65
2021/06/26 11:02:24;;;;;;;9.50;8.60;;;23.60;99.90;;;;;;5029090;28;20480;-66
2021/06/26 11:04:51;;;;;;;7.40;6.80;;;23.40;99.90;;;;;;5042783;28;21075;-64
2021/06/26 11:07:19;;;;;;;7.57;6.80;;;23.20;99.90;;;;;;5048099;28;20483;-66
2021/06/26 11:09:47;;;;;;;9.03;8.13;;;23.00;99.90;;;;;;5046826;28;20463;-65
2021/06/26 11:12:16;;;;;;;7.77;7.10;;;23.10;99.90;;;;;;5045198;28;20847;-66
2021/06/26 11:14:53;;;;;;;7.63;6.93;;;23.20;99.90;;;;;;5048526;28;20459;-65
2021/06/26 11:17:23;;;;;;;6.40;5.80;;;23.20;99.90;;;;;;5048193;28;20462;-65
2021/06/26 11:19:52;;;;;;;7.07;6.47;;;23.30;99.90;;;;;;5048268;28;20488;-65
2021/06/26 11:22:19;;;;;;;7.00;6.40;;;23.30;99.90;;;;;;5045592;28;20479;-66
2021/06/26 11:24:47;;;;;;;7.03;6.43;;;23.30;99.90;;;;;;5047495;28;20459;-66
2021/06/26 11:27:18;;;;;;;7.50;6.90;;;23.30;99.90;;;;;;5047975;28;20462;-65
2021/06/26 11:29:47;;;;;;;7.17;6.47;;;23.20;99.90;;;;;;5048224;28;20463;-65
2021/06/26 11:32:23;;;;;;;7.23;6.60;;;23.10;99.90;;;;;;5050430;28;20989;-66
2021/06/26 11:34:56;;;;;;;7.27;6.67;;;22.90;99.90;;;;;;5052610;28;20462;-65
2021/06/26 11:37:23;;;;;;;7.30;6.60;;;23.00;99.90;;;;;;5052436;28;20559;-65
2021/06/26 11:39:50;;;;;;;8.57;7.80;;;23.10;99.90;;;;;;5051555;28;20463;-66
2021/06/26 11:42:19;;;;;;;7.03;6.33;;;23.20;99.90;;;;;;5051710;28;20490;-65
2021/06/26 11:44:47;;;;;;;6.90;6.30;;;23.10;99.90;;;;;;5052058;28;20455;-65
2021/06/26 11:47:15;;;;;;;6.30;5.80;;;23.00;99.90;;;;;;5049125;28;20468;-65
2021/06/26 11:49:45;;;;;;;7.23;6.63;;;23.10;99.90;;;;;;5051712;28;20459;-66
2021/06/26 11:52:13;;;;;;;7.57;6.87;;;23.40;99.90;;;;;;5051819;28;20853;-65
2021/06/26 11:54:41;;;;;;;7.27;6.57;;;23.60;99.90;;;;;;5052776;28;20465;-65
2021/06/26 11:57:12;;;;;;;6.60;6.10;;;23.80;99.90;;;;;;5048807;28;20501;-65
2021/06/26 11:59:40;;;;;;;6.20;5.63;;;23.90;99.90;;;;;;5047400;28;20470;-65
2021/06/26 12:02:08;;;;;;;6.40;5.80;;;23.90;99.90;;;;;;5047724;28;21459;-65
2021/06/26 12:04:34;;;;;;;5.70;5.30;;;24.00;99.90;;;;;;5041447;28;20467;-65
2021/06/26 12:07:03;;;;;;;6.50;6.00;;;24.10;99.90;;;;;;5047097;28;20447;-64
2021/06/26 12:09:29;;;;;;;6.60;6.00;;;24.10;99.90;;;;;;5047570;28;20488;-66
2021/06/26 12:11:58;;;;;;;6.43;5.70;;;23.90;99.90;;;;;;5047516;28;20485;-65
2021/06/26 12:14:28;;;;;;;6.27;5.77;;;23.80;99.90;;;;;;5047983;28;20540;-66
2021/06/26 12:17:03;;;;;;;6.40;5.80;;;23.60;99.90;;;;;;5046238;28;20455;-65
2021/06/26 12:19:32;;;;;;;6.17;5.63;;;23.50;99.90;;;;;;5047179;28;20528;-65
2021/06/26 12:22:00;;;;;;;6.20;5.70;;;23.50;99.90;;;;;;5047581;28;20491;-65
2021/06/26 12:24:30;;;;;;;6.50;5.90;;;23.70;99.90;;;;;;5047922;28;20472;-65
2021/06/26 12:27:05;;;;;;;6.13;5.63;;;24.00;99.90;;;;;;5047925;28;20462;-66
2021/06/26 12:29:31;;;;;;;6.60;6.00;;;24.20;99.90;;;;;;5047395;28;20522;-65
2021/06/26 12:31:58;;;;;;;6.40;5.90;;;24.40;99.90;;;;;;5047960;28;20488;-65
2021/06/26 12:34:25;;;;;;;6.90;6.20;;;24.50;99.90;;;;;;5043041;28;20482;-65
2021/06/26 12:36:53;;;;;;;6.07;5.57;;;24.50;99.90;;;;;;5043972;28;20939;-66
2021/06/26 12:39:23;;;;;;;5.67;5.20;;;24.60;99.90;;;;;;5044150;28;20463;-64
2021/06/26 12:42:01;;;;;;;5.77;5.37;;;24.70;99.90;;;;;;5045749;28;20483;-65
2021/06/26 12:44:29;;;;;;;5.87;5.30;;;24.70;99.90;;;;;;5039077;28;20965;-65